KINS/INS METAR and TAF weather

Enter ICAO airport designator
Station Type Date Time Source
KINS METAR 2019/10/12 04:57 UTC NOAA

KINS 120457Z 20003KT 10SM CLR 09/M29 A3006 RMK AO2A WND DATA ESTMD SLPNO


Station Type Date Time Source
KINS Decoded METAR 2019/10/12 04:57 UTC NOAA

Indian Springs, Indian Springs Auxiliary AFLD Nellis AFB, NV, United States (KINS) 36-35N 115-40W
Oct 12, 2019 - 12:57 AM EDT / 2019.10.12 0457 UTC
Wind: from the SSW (200 degrees) at 3 MPH (3 KT):0
Visibility: 10 mile(s):0
Sky conditions: clear
Temperature: 48 F (9 C)
Dew Point: -20 F (-29 C)
Relative Humidity: 4%
Pressure (altimeter): 30.06 in. Hg (1017 hPa)
ob: KINS 120457Z 20003KT 10SM CLR 09/M29 A3006 RMK AO2A WND DATA ESTMD SLPNO
cycle: 5

Station Type Date Time Source
KINS TAF 2019/10/12 05:58 UTC NOAA

TAF KINS 120457Z 1205/1311 24009KT 9999 SKC QNH3003INS
BECMG 1215/1216 VRB06KT 9999 SKC QNH2990INS
BECMG 1303/1304 24009KT 9999 SKC QNH2993INS TX22/1223Z TN07/1212Z LAST NO
AMDS AFT 1205 NEXT 1505

Example: see airport list